sensor_id;sensor_type;location;lat;lon;timestamp;temperature;humidity
18287;DHT22;9269;50.838;12.094;2024-02-14T00:01:40;7.30;58.00
18287;DHT22;9269;50.838;12.094;2024-02-14T00:04:12;7.50;57.50
18287;DHT22;9269;50.838;12.094;2024-02-14T00:06:42;7.60;58.20
18287;DHT22;9269;50.838;12.094;2024-02-14T00:09:12;7.60;57.90
18287;DHT22;9269;50.838;12.094;2024-02-14T00:14:23;7.60;57.90
18287;DHT22;9269;50.838;12.094;2024-02-14T00:16:53;7.50;58.20
18287;DHT22;9269;50.838;12.094;2024-02-14T00:23:22;7.50;58.10
18287;DHT22;9269;50.838;12.094;2024-02-14T00:25:51;7.60;58.30
18287;DHT22;9269;50.838;12.094;2024-02-14T00:28:20;7.60;58.00
18287;DHT22;9269;50.838;12.094;2024-02-14T00:30:53;7.50;58.30
18287;DHT22;9269;50.838;12.094;2024-02-14T00:33:21;7.70;58.20
18287;DHT22;9269;50.838;12.094;2024-02-14T00:35:50;7.60;58.00
18287;DHT22;9269;50.838;12.094;2024-02-14T00:38:20;7.60;58.40
18287;DHT22;9269;50.838;12.094;2024-02-14T00:40:52;7.60;58.60
18287;DHT22;9269;50.838;12.094;2024-02-14T00:43:21;7.70;58.20
18287;DHT22;9269;50.838;12.094;2024-02-14T00:45:49;7.50;58.50
18287;DHT22;9269;50.838;12.094;2024-02-14T00:48:20;7.80;58.40
18287;DHT22;9269;50.838;12.094;2024-02-14T00:50:49;7.70;58.40
18287;DHT22;9269;50.838;12.094;2024-02-14T00:53:19;7.80;58.30
18287;DHT22;9269;50.838;12.094;2024-02-14T00:55:48;7.80;58.50
18287;DHT22;9269;50.838;12.094;2024-02-14T00:58:17;7.70;58.50
18287;DHT22;9269;50.838;12.094;2024-02-14T01:00:46;7.70;58.90
18287;DHT22;9269;50.838;12.094;2024-02-14T01:03:15;7.70;58.50
18287;DHT22;9269;50.838;12.094;2024-02-14T01:05:47;7.70;58.40
18287;DHT22;9269;50.838;12.094;2024-02-14T01:08:16;7.60;58.80
18287;DHT22;9269;50.838;12.094;2024-02-14T01:10:45;7.70;58.60
18287;DHT22;9269;50.838;12.094;2024-02-14T01:13:15;7.60;58.80
18287;DHT22;9269;50.838;12.094;2024-02-14T01:15:46;7.70;58.70
18287;DHT22;9269;50.838;12.094;2024-02-14T01:18:14;7.80;58.70
18287;DHT22;9269;50.838;12.094;2024-02-14T01:20:46;7.80;58.80
18287;DHT22;9269;50.838;12.094;2024-02-14T01:23:14;7.80;58.40
18287;DHT22;9269;50.838;12.094;2024-02-14T01:25:43;7.70;58.70
18287;DHT22;9269;50.838;12.094;2024-02-14T01:28:13;7.80;58.50
18287;DHT22;9269;50.838;12.094;2024-02-14T01:30:42;7.80;58.70
18287;DHT22;9269;50.838;12.094;2024-02-14T01:33:10;7.70;58.90
18287;DHT22;9269;50.838;12.094;2024-02-14T01:35:40;7.90;59.10
18287;DHT22;9269;50.838;12.094;2024-02-14T01:38:11;7.90;58.70
18287;DHT22;9269;50.838;12.094;2024-02-14T01:40:42;7.90;58.60
18287;DHT22;9269;50.838;12.094;2024-02-14T01:43:12;8.00;58.40
18287;DHT22;9269;50.838;12.094;2024-02-14T01:45:43;7.90;58.50
18287;DHT22;9269;50.838;12.094;2024-02-14T01:48:13;7.90;58.60
18287;DHT22;9269;50.838;12.094;2024-02-14T01:50:46;7.90;58.60
18287;DHT22;9269;50.838;12.094;2024-02-14T01:53:18;7.70;58.60
18287;DHT22;9269;50.838;12.094;2024-02-14T01:55:48;7.90;58.90
18287;DHT22;9269;50.838;12.094;2024-02-14T01:58:18;7.70;58.80
18287;DHT22;9269;50.838;12.094;2024-02-14T02:00:47;8.00;58.70
18287;DHT22;9269;50.838;12.094;2024-02-14T02:03:17;8.00;58.70
18287;DHT22;9269;50.838;12.094;2024-02-14T02:05:47;7.90;58.80
18287;DHT22;9269;50.838;12.094;2024-02-14T02:08:18;7.90;58.70
18287;DHT22;9269;50.838;12.094;2024-02-14T02:10:48;7.90;58.80
18287;DHT22;9269;50.838;12.094;2024-02-14T02:13:17;8.00;58.90
18287;DHT22;9269;50.838;12.094;2024-02-14T02:15:47;8.00;58.70
18287;DHT22;9269;50.838;12.094;2024-02-14T02:18:17;7.90;59.20
18287;DHT22;9269;50.838;12.094;2024-02-14T02:20:47;8.10;58.60
18287;DHT22;9269;50.838;12.094;2024-02-14T02:23:19;8.10;59.00
18287;DHT22;9269;50.838;12.094;2024-02-14T02:25:50;8.00;58.90
18287;DHT22;9269;50.838;12.094;2024-02-14T02:28:19;7.90;58.80
18287;DHT22;9269;50.838;12.094;2024-02-14T02:30:48;8.00;58.90
18287;DHT22;9269;50.838;12.094;2024-02-14T02:33:18;8.00;58.60
18287;DHT22;9269;50.838;12.094;2024-02-14T02:35:48;8.20;58.60
18287;DHT22;9269;50.838;12.094;2024-02-14T02:38:19;8.10;58.30
18287;DHT22;9269;50.838;12.094;2024-02-14T02:40:50;8.00;58.70
18287;DHT22;9269;50.838;12.094;2024-02-14T02:43:19;8.10;59.10
18287;DHT22;9269;50.838;12.094;2024-02-14T02:45:49;8.00;58.60
18287;DHT22;9269;50.838;12.094;2024-02-14T02:48:19;8.10;58.90
18287;DHT22;9269;50.838;12.094;2024-02-14T02:50:51;8.20;58.10
18287;DHT22;9269;50.838;12.094;2024-02-14T02:53:21;8.20;58.90
18287;DHT22;9269;50.838;12.094;2024-02-14T02:55:52;8.20;58.40
18287;DHT22;9269;50.838;12.094;2024-02-14T02:58:22;8.20;58.30
18287;DHT22;9269;50.838;12.094;2024-02-14T03:00:52;8.10;58.50
18287;DHT22;9269;50.838;12.094;2024-02-14T03:03:23;8.20;58.80
18287;DHT22;9269;50.838;12.094;2024-02-14T03:05:56;8.10;58.30
18287;DHT22;9269;50.838;12.094;2024-02-14T03:08:28;7.90;58.40
18287;DHT22;9269;50.838;12.094;2024-02-14T03:11:01;8.10;58.10
18287;DHT22;9269;50.838;12.094;2024-02-14T03:13:30;8.20;58.60
18287;DHT22;9269;50.838;12.094;2024-02-14T03:16:00;8.10;58.40
18287;DHT22;9269;50.838;12.094;2024-02-14T03:18:29;8.20;58.10
18287;DHT22;9269;50.838;12.094;2024-02-14T03:20:58;8.20;58.60
18287;DHT22;9269;50.838;12.094;2024-02-14T03:23:26;8.20;58.30
18287;DHT22;9269;50.838;12.094;2024-02-14T03:25:57;8.10;58.20
18287;DHT22;9269;50.838;12.094;2024-02-14T03:28:27;8.10;58.30
18287;DHT22;9269;50.838;12.094;2024-02-14T03:30:56;8.10;58.60
18287;DHT22;9269;50.838;12.094;2024-02-14T03:33:25;8.30;58.40
18287;DHT22;9269;50.838;12.094;2024-02-14T03:35:54;8.20;58.10
18287;DHT22;9269;50.838;12.094;2024-02-14T03:38:25;8.10;58.30
18287;DHT22;9269;50.838;12.094;2024-02-14T03:40:57;8.20;58.40
18287;DHT22;9269;50.838;12.094;2024-02-14T03:43:26;8.30;58.00
18287;DHT22;9269;50.838;12.094;2024-02-14T03:45:56;8.20;57.80
18287;DHT22;9269;50.838;12.094;2024-02-14T03:48:25;8.20;57.90
18287;DHT22;9269;50.838;12.094;2024-02-14T03:50:55;8.00;57.90
18287;DHT22;9269;50.838;12.094;2024-02-14T03:53:25;8.30;58.10
18287;DHT22;9269;50.838;12.094;2024-02-14T03:55:56;8.40;57.80
18287;DHT22;9269;50.838;12.094;2024-02-14T03:58:25;8.30;57.80
18287;DHT22;9269;50.838;12.094;2024-02-14T04:00:54;8.20;58.00
18287;DHT22;9269;50.838;12.094;2024-02-14T04:03:24;8.20;57.50
18287;DHT22;9269;50.838;12.094;2024-02-14T04:05:53;8.30;57.90
18287;DHT22;9269;50.838;12.094;2024-02-14T04:08:23;8.50;57.70
18287;DHT22;9269;50.838;12.094;2024-02-14T04:10:53;8.30;57.80
18287;DHT22;9269;50.838;12.094;2024-02-14T04:13:25;8.40;57.80
18287;DHT22;9269;50.838;12.094;2024-02-14T04:15:55;8.30;57.80
18287;DHT22;9269;50.838;12.094;2024-02-14T04:18:24;8.50;57.60
18287;DHT22;9269;50.838;12.094;2024-02-14T04:20:54;8.40;57.30
18287;DHT22;9269;50.838;12.094;2024-02-14T04:23:23;8.40;57.40
18287;DHT22;9269;50.838;12.094;2024-02-14T04:25:52;8.30;57.10
18287;DHT22;9269;50.838;12.094;2024-02-14T04:28:20;8.60;57.30
18287;DHT22;9269;50.838;12.094;2024-02-14T04:30:51;8.30;57.00
18287;DHT22;9269;50.838;12.094;2024-02-14T04:33:21;8.40;57.00
18287;DHT22;9269;50.838;12.094;2024-02-14T04:35:51;8.50;56.80
18287;DHT22;9269;50.838;12.094;2024-02-14T04:38:21;8.60;57.00
18287;DHT22;9269;50.838;12.094;2024-02-14T04:40:51;8.50;57.00
18287;DHT22;9269;50.838;12.094;2024-02-14T04:43:20;8.50;57.00
18287;DHT22;9269;50.838;12.094;2024-02-14T04:45:51;8.50;56.40
18287;DHT22;9269;50.838;12.094;2024-02-14T04:48:19;8.60;56.90
18287;DHT22;9269;50.838;12.094;2024-02-14T04:50:50;8.50;56.60
18287;DHT22;9269;50.838;12.094;2024-02-14T04:53:20;8.50;56.70
18287;DHT22;9269;50.838;12.094;2024-02-14T04:55:49;8.60;56.70
18287;DHT22;9269;50.838;12.094;2024-02-14T04:58:18;8.50;56.90
18287;DHT22;9269;50.838;12.094;2024-02-14T05:00:48;8.50;56.70
18287;DHT22;9269;50.838;12.094;2024-02-14T05:03:18;8.50;56.50
18287;DHT22;9269;50.838;12.094;2024-02-14T05:05:46;8.50;56.40
18287;DHT22;9269;50.838;12.094;2024-02-14T05:08:14;8.60;56.70
18287;DHT22;9269;50.838;12.094;2024-02-14T05:10:44;8.60;56.40
18287;DHT22;9269;50.838;12.094;2024-02-14T05:13:13;8.40;56.60
18287;DHT22;9269;50.838;12.094;2024-02-14T05:15:44;8.30;56.60
18287;DHT22;9269;50.838;12.094;2024-02-14T05:18:15;8.40;56.70
18287;DHT22;9269;50.838;12.094;2024-02-14T05:20:46;8.50;57.00
18287;DHT22;9269;50.838;12.094;2024-02-14T05:23:15;8.50;56.60
18287;DHT22;9269;50.838;12.094;2024-02-14T05:25:45;8.40;57.20
18287;DHT22;9269;50.838;12.094;2024-02-14T05:28:15;8.50;56.70
18287;DHT22;9269;50.838;12.094;2024-02-14T05:30:46;8.50;56.80
18287;DHT22;9269;50.838;12.094;2024-02-14T05:33:15;8.60;56.70
18287;DHT22;9269;50.838;12.094;2024-02-14T05:35:47;8.40;56.80
18287;DHT22;9269;50.838;12.094;2024-02-14T05:38:16;8.60;56.70
18287;DHT22;9269;50.838;12.094;2024-02-14T05:40:47;8.50;56.80
18287;DHT22;9269;50.838;12.094;2024-02-14T05:43:16;8.60;57.20
18287;DHT22;9269;50.838;12.094;2024-02-14T05:45:46;8.50;56.90
18287;DHT22;9269;50.838;12.094;2024-02-14T05:48:15;8.50;56.80
18287;DHT22;9269;50.838;12.094;2024-02-14T05:50:48;8.60;56.80
18287;DHT22;9269;50.838;12.094;2024-02-14T05:53:16;8.50;57.10
18287;DHT22;9269;50.838;12.094;2024-02-14T05:55:45;8.60;56.90
18287;DHT22;9269;50.838;12.094;2024-02-14T05:58:15;8.50;56.90
18287;DHT22;9269;50.838;12.094;2024-02-14T06:00:43;8.50;57.00
18287;DHT22;9269;50.838;12.094;2024-02-14T06:03:12;8.60;56.70
18287;DHT22;9269;50.838;12.094;2024-02-14T06:05:42;8.60;57.10
18287;DHT22;9269;50.838;12.094;2024-02-14T06:08:15;8.60;57.00
18287;DHT22;9269;50.838;12.094;2024-02-14T06:10:43;8.60;56.90
18287;DHT22;9269;50.838;12.094;2024-02-14T06:13:12;8.70;57.00
18287;DHT22;9269;50.838;12.094;2024-02-14T06:15:41;8.70;56.80
18287;DHT22;9269;50.838;12.094;2024-02-14T06:18:09;8.70;56.90
18287;DHT22;9269;50.838;12.094;2024-02-14T06:20:39;8.70;56.90
18287;DHT22;9269;50.838;12.094;2024-02-14T06:23:08;8.70;56.80
18287;DHT22;9269;50.838;12.094;2024-02-14T06:25:39;8.70;57.00
18287;DHT22;9269;50.838;12.094;2024-02-14T06:28:09;8.70;56.50
18287;DHT22;9269;50.838;12.094;2024-02-14T06:30:38;8.70;56.60
18287;DHT22;9269;50.838;12.094;2024-02-14T06:33:06;8.70;56.70
18287;DHT22;9269;50.838;12.094;2024-02-14T06:35:35;8.70;56.80
18287;DHT22;9269;50.838;12.094;2024-02-14T06:38:04;8.80;57.00
18287;DHT22;9269;50.838;12.094;2024-02-14T06:40:34;8.70;56.50
18287;DHT22;9269;50.838;12.094;2024-02-14T06:43:05;8.80;56.80
18287;DHT22;9269;50.838;12.094;2024-02-14T06:45:34;8.80;56.40
18287;DHT22;9269;50.838;12.094;2024-02-14T06:48:03;8.80;56.40
18287;DHT22;9269;50.838;12.094;2024-02-14T06:50:32;8.80;56.30
18287;DHT22;9269;50.838;12.094;2024-02-14T06:53:01;8.70;56.60
18287;DHT22;9269;50.838;12.094;2024-02-14T06:55:31;8.60;56.60
18287;DHT22;9269;50.838;12.094;2024-02-14T06:58:01;8.80;56.80
18287;DHT22;9269;50.838;12.094;2024-02-14T07:00:34;8.80;56.50
18287;DHT22;9269;50.838;12.094;2024-02-14T07:03:03;8.90;56.80
18287;DHT22;9269;50.838;12.094;2024-02-14T07:05:33;8.90;56.60
18287;DHT22;9269;50.838;12.094;2024-02-14T07:08:03;8.80;56.70
18287;DHT22;9269;50.838;12.094;2024-02-14T07:10:32;8.80;56.90
18287;DHT22;9269;50.838;12.094;2024-02-14T07:13:02;8.90;56.70
18287;DHT22;9269;50.838;12.094;2024-02-14T07:15:33;9.00;56.80
18287;DHT22;9269;50.838;12.094;2024-02-14T07:18:02;9.10;56.90
18287;DHT22;9269;50.838;12.094;2024-02-14T07:20:32;9.10;56.90
18287;DHT22;9269;50.838;12.094;2024-02-14T07:23:02;9.10;56.50
18287;DHT22;9269;50.838;12.094;2024-02-14T07:25:33;9.10;56.80
18287;DHT22;9269;50.838;12.094;2024-02-14T07:28:04;9.10;56.50
18287;DHT22;9269;50.838;12.094;2024-02-14T07:30:35;9.20;56.60
18287;DHT22;9269;50.838;12.094;2024-02-14T07:33:07;9.30;56.80
18287;DHT22;9269;50.838;12.094;2024-02-14T07:35:38;9.30;56.80
18287;DHT22;9269;50.838;12.094;2024-02-14T07:38:12;9.40;56.50
18287;DHT22;9269;50.838;12.094;2024-02-14T07:40:40;9.50;56.70
18287;DHT22;9269;50.838;12.094;2024-02-14T07:43:15;9.50;56.80
18287;DHT22;9269;50.838;12.094;2024-02-14T07:45:45;9.60;56.80
18287;DHT22;9269;50.838;12.094;2024-02-14T07:48:16;9.60;56.40
18287;DHT22;9269;50.838;12.094;2024-02-14T07:50:46;9.60;56.70
18287;DHT22;9269;50.838;12.094;2024-02-14T07:53:14;9.70;56.80
18287;DHT22;9269;50.838;12.094;2024-02-14T07:55:43;9.70;56.50
18287;DHT22;9269;50.838;12.094;2024-02-14T07:58:11;9.80;56.90
18287;DHT22;9269;50.838;12.094;2024-02-14T08:00:41;9.80;56.70
18287;DHT22;9269;50.838;12.094;2024-02-14T08:03:12;9.80;57.50
18287;DHT22;9269;50.838;12.094;2024-02-14T08:05:42;9.80;57.00
18287;DHT22;9269;50.838;12.094;2024-02-14T08:08:12;9.90;56.90
18287;DHT22;9269;50.838;12.094;2024-02-14T08:10:41;9.90;57.30
18287;DHT22;9269;50.838;12.094;2024-02-14T08:13:10;9.90;57.00
18287;DHT22;9269;50.838;12.094;2024-02-14T08:15:44;10.00;57.40
18287;DHT22;9269;50.838;12.094;2024-02-14T08:18:15;10.10;57.10
18287;DHT22;9269;50.838;12.094;2024-02-14T08:20:43;10.10;57.20
18287;DHT22;9269;50.838;12.094;2024-02-14T08:23:12;10.10;57.10
18287;DHT22;9269;50.838;12.094;2024-02-14T08:25:41;10.20;57.30
18287;DHT22;9269;50.838;12.094;2024-02-14T08:28:10;10.20;57.80
18287;DHT22;9269;50.838;12.094;2024-02-14T08:33:08;10.50;57.30
18287;DHT22;9269;50.838;12.094;2024-02-14T08:35:39;10.60;57.30
18287;DHT22;9269;50.838;12.094;2024-02-14T08:38:11;10.70;57.20
18287;DHT22;9269;50.838;12.094;2024-02-14T08:40:41;10.70;57.60
18287;DHT22;9269;50.838;12.094;2024-02-14T08:43:09;10.80;57.40
18287;DHT22;9269;50.838;12.094;2024-02-14T08:45:39;10.90;57.50
18287;DHT22;9269;50.838;12.094;2024-02-14T08:48:09;10.80;57.50
18287;DHT22;9269;50.838;12.094;2024-02-14T08:50:39;11.00;57.70
18287;DHT22;9269;50.838;12.094;2024-02-14T08:53:08;11.10;57.60
18287;DHT22;9269;50.838;12.094;2024-02-14T08:55:37;11.20;57.50
18287;DHT22;9269;50.838;12.094;2024-02-14T08:58:07;11.20;57.80
18287;DHT22;9269;50.838;12.094;2024-02-14T09:00:38;11.30;57.80
18287;DHT22;9269;50.838;12.094;2024-02-14T09:03:09;11.30;57.70
18287;DHT22;9269;50.838;12.094;2024-02-14T09:05:39;11.30;58.10
18287;DHT22;9269;50.838;12.094;2024-02-14T09:08:08;11.30;58.30
18287;DHT22;9269;50.838;12.094;2024-02-14T09:10:38;11.30;58.40
18287;DHT22;9269;50.838;12.094;2024-02-14T09:13:07;11.20;58.40
18287;DHT22;9269;50.838;12.094;2024-02-14T09:15:38;11.30;58.80
18287;DHT22;9269;50.838;12.094;2024-02-14T09:18:06;11.20;58.50
18287;DHT22;9269;50.838;12.094;2024-02-14T09:20:38;11.30;58.50
18287;DHT22;9269;50.838;12.094;2024-02-14T09:23:07;11.30;58.60
18287;DHT22;9269;50.838;12.094;2024-02-14T09:25:36;11.30;58.30
18287;DHT22;9269;50.838;12.094;2024-02-14T09:28:06;11.20;58.30
18287;DHT22;9269;50.838;12.094;2024-02-14T09:30:37;11.20;58.80
18287;DHT22;9269;50.838;12.094;2024-02-14T09:33:07;11.30;58.40
18287;DHT22;9269;50.838;12.094;2024-02-14T09:35:39;11.30;58.30
18287;DHT22;9269;50.838;12.094;2024-02-14T09:38:13;11.30;58.60
18287;DHT22;9269;50.838;12.094;2024-02-14T09:40:42;11.40;58.90
18287;DHT22;9269;50.838;12.094;2024-02-14T09:43:20;11.40;59.10
18287;DHT22;9269;50.838;12.094;2024-02-14T09:45:53;11.40;58.60
18287;DHT22;9269;50.838;12.094;2024-02-14T09:48:25;11.60;58.60
18287;DHT22;9269;50.838;12.094;2024-02-14T09:50:56;11.60;58.40
18287;DHT22;9269;50.838;12.094;2024-02-14T09:53:26;11.50;58.60
18287;DHT22;9269;50.838;12.094;2024-02-14T09:55:57;11.40;58.50
18287;DHT22;9269;50.838;12.094;2024-02-14T09:58:28;11.50;58.60
18287;DHT22;9269;50.838;12.094;2024-02-14T10:00:57;11.50;58.80
18287;DHT22;9269;50.838;12.094;2024-02-14T10:03:26;11.50;58.80
18287;DHT22;9269;50.838;12.094;2024-02-14T10:05:55;11.70;58.30
18287;DHT22;9269;50.838;12.094;2024-02-14T10:08:25;11.70;59.00
18287;DHT22;9269;50.838;12.094;2024-02-14T10:10:56;11.70;58.80
18287;DHT22;9269;50.838;12.094;2024-02-14T10:13:27;11.70;59.10
18287;DHT22;9269;50.838;12.094;2024-02-14T10:15:55;11.70;59.10
18287;DHT22;9269;50.838;12.094;2024-02-14T10:18:24;11.80;58.60
18287;DHT22;9269;50.838;12.094;2024-02-14T10:20:56;11.70;59.00
18287;DHT22;9269;50.838;12.094;2024-02-14T10:23:27;11.80;58.30
18287;DHT22;9269;50.838;12.094;2024-02-14T10:25:58;11.80;58.90
18287;DHT22;9269;50.838;12.094;2024-02-14T10:28:28;11.80;58.90
18287;DHT22;9269;50.838;12.094;2024-02-14T10:31:10;11.90;59.00
18287;DHT22;9269;50.838;12.094;2024-02-14T10:33:39;11.90;58.80
18287;DHT22;9269;50.838;12.094;2024-02-14T10:36:09;12.10;59.00
18287;DHT22;9269;50.838;12.094;2024-02-14T10:38:40;12.10;58.60
18287;DHT22;9269;50.838;12.094;2024-02-14T10:41:10;12.20;59.00
18287;DHT22;9269;50.838;12.094;2024-02-14T10:43:41;12.30;58.60
18287;DHT22;9269;50.838;12.094;2024-02-14T10:46:16;12.40;59.00
18287;DHT22;9269;50.838;12.094;2024-02-14T10:48:50;12.40;58.90
18287;DHT22;9269;50.838;12.094;2024-02-14T10:51:21;12.50;58.80
18287;DHT22;9269;50.838;12.094;2024-02-14T10:53:52;12.50;58.70
18287;DHT22;9269;50.838;12.094;2024-02-14T10:56:24;12.50;58.20
18287;DHT22;9269;50.838;12.094;2024-02-14T10:58:56;12.40;58.80
18287;DHT22;9269;50.838;12.094;2024-02-14T11:01:27;12.60;58.60
18287;DHT22;9269;50.838;12.094;2024-02-14T11:03:59;12.60;58.60
18287;DHT22;9269;50.838;12.094;2024-02-14T11:06:29;12.60;58.70
18287;DHT22;9269;50.838;12.094;2024-02-14T11:09:00;12.70;57.30
18287;DHT22;9269;50.838;12.094;2024-02-14T11:11:33;12.90;57.00
18287;DHT22;9269;50.838;12.094;2024-02-14T11:14:02;12.90;57.00
18287;DHT22;9269;50.838;12.094;2024-02-14T11:16:31;13.00;56.60
18287;DHT22;9269;50.838;12.094;2024-02-14T11:19:07;13.00;57.10
18287;DHT22;9269;50.838;12.094;2024-02-14T11:21:41;13.00;56.90
18287;DHT22;9269;50.838;12.094;2024-02-14T11:24:14;13.00;57.00
18287;DHT22;9269;50.838;12.094;2024-02-14T11:26:47;13.00;56.90
18287;DHT22;9269;50.838;12.094;2024-02-14T11:29:17;13.00;56.60
18287;DHT22;9269;50.838;12.094;2024-02-14T11:31:57;13.00;57.00
18287;DHT22;9269;50.838;12.094;2024-02-14T11:34:27;13.10;56.70
18287;DHT22;9269;50.838;12.094;2024-02-14T11:36:57;13.00;56.60
18287;DHT22;9269;50.838;12.094;2024-02-14T11:39:26;12.90;56.20
18287;DHT22;9269;50.838;12.094;2024-02-14T11:41:57;12.90;56.30
18287;DHT22;9269;50.838;12.094;2024-02-14T11:44:27;12.90;56.10
18287;DHT22;9269;50.838;12.094;2024-02-14T11:46:57;12.90;56.30
18287;DHT22;9269;50.838;12.094;2024-02-14T11:49:26;12.90;56.70
18287;DHT22;9269;50.838;12.094;2024-02-14T11:51:58;12.80;56.60
18287;DHT22;9269;50.838;12.094;2024-02-14T11:54:27;12.80;56.40
18287;DHT22;9269;50.838;12.094;2024-02-14T11:56:57;12.90;56.70
18287;DHT22;9269;50.838;12.094;2024-02-14T11:59:26;12.80;56.70
18287;DHT22;9269;50.838;12.094;2024-02-14T12:01:55;12.90;56.60
18287;DHT22;9269;50.838;12.094;2024-02-14T12:04:27;12.90;57.00
18287;DHT22;9269;50.838;12.094;2024-02-14T12:06:57;12.80;56.70
18287;DHT22;9269;50.838;12.094;2024-02-14T12:09:27;12.90;56.70
18287;DHT22;9269;50.838;12.094;2024-02-14T12:11:58;12.90;56.70
18287;DHT22;9269;50.838;12.094;2024-02-14T12:14:28;12.90;56.80
18287;DHT22;9269;50.838;12.094;2024-02-14T12:17:00;13.00;56.70
18287;DHT22;9269;50.838;12.094;2024-02-14T12:19:30;13.00;56.80
18287;DHT22;9269;50.838;12.094;2024-02-14T12:22:09;13.00;56.90
18287;DHT22;9269;50.838;12.094;2024-02-14T12:24:40;13.10;57.30
18287;DHT22;9269;50.838;12.094;2024-02-14T12:27:09;13.10;57.10
18287;DHT22;9269;50.838;12.094;2024-02-14T12:29:38;13.10;57.30
18287;DHT22;9269;50.838;12.094;2024-02-14T12:32:08;13.10;56.90
18287;DHT22;9269;50.838;12.094;2024-02-14T12:34:38;13.10;56.90
18287;DHT22;9269;50.838;12.094;2024-02-14T12:37:08;13.10;57.30
18287;DHT22;9269;50.838;12.094;2024-02-14T12:39:37;13.20;57.40
18287;DHT22;9269;50.838;12.094;2024-02-14T12:42:08;13.20;57.20
18287;DHT22;9269;50.838;12.094;2024-02-14T12:47:19;13.20;57.30
18287;DHT22;9269;50.838;12.094;2024-02-14T12:49:50;13.40;57.50
18287;DHT22;9269;50.838;12.094;2024-02-14T12:52:20;13.30;57.70
18287;DHT22;9269;50.838;12.094;2024-02-14T12:54:50;13.30;57.30
18287;DHT22;9269;50.838;12.094;2024-02-14T12:57:21;13.30;57.60
18287;DHT22;9269;50.838;12.094;2024-02-14T12:59:50;13.20;57.70
18287;DHT22;9269;50.838;12.094;2024-02-14T13:02:19;13.30;57.40
18287;DHT22;9269;50.838;12.094;2024-02-14T13:04:49;13.30;57.80
18287;DHT22;9269;50.838;12.094;2024-02-14T13:07:19;13.30;57.80
18287;DHT22;9269;50.838;12.094;2024-02-14T13:09:49;13.30;57.20
18287;DHT22;9269;50.838;12.094;2024-02-14T13:12:19;13.40;57.70
18287;DHT22;9269;50.838;12.094;2024-02-14T13:14:50;13.40;57.40
18287;DHT22;9269;50.838;12.094;2024-02-14T13:17:19;13.40;57.30
18287;DHT22;9269;50.838;12.094;2024-02-14T13:19:48;13.40;57.40
18287;DHT22;9269;50.838;12.094;2024-02-14T13:22:17;13.40;57.20
18287;DHT22;9269;50.838;12.094;2024-02-14T13:24:47;13.40;57.20
18287;DHT22;9269;50.838;12.094;2024-02-14T13:27:15;13.30;57.30
18287;DHT22;9269;50.838;12.094;2024-02-14T13:29:45;13.30;57.60
18287;DHT22;9269;50.838;12.094;2024-02-14T13:32:15;13.30;57.00
18287;DHT22;9269;50.838;12.094;2024-02-14T13:34:46;13.30;57.30
18287;DHT22;9269;50.838;12.094;2024-02-14T13:37:15;13.30;57.60
18287;DHT22;9269;50.838;12.094;2024-02-14T13:39:44;13.40;57.30
18287;DHT22;9269;50.838;12.094;2024-02-14T13:42:14;13.40;57.20
18287;DHT22;9269;50.838;12.094;2024-02-14T13:44:44;13.40;57.70
18287;DHT22;9269;50.838;12.094;2024-02-14T13:47:17;13.40;57.20
18287;DHT22;9269;50.838;12.094;2024-02-14T13:49:46;13.40;57.50
18287;DHT22;9269;50.838;12.094;2024-02-14T13:52:16;13.40;57.20
18287;DHT22;9269;50.838;12.094;2024-02-14T13:54:46;13.40;57.00
18287;DHT22;9269;50.838;12.094;2024-02-14T13:57:17;13.30;57.10
18287;DHT22;9269;50.838;12.094;2024-02-14T13:59:47;13.40;56.70
18287;DHT22;9269;50.838;12.094;2024-02-14T14:02:18;13.20;57.40
18287;DHT22;9269;50.838;12.094;2024-02-14T14:04:46;13.30;57.50
18287;DHT22;9269;50.838;12.094;2024-02-14T14:07:17;13.40;57.60
18287;DHT22;9269;50.838;12.094;2024-02-14T14:09:46;13.30;57.40
18287;DHT22;9269;50.838;12.094;2024-02-14T14:12:18;13.20;57.60
18287;DHT22;9269;50.838;12.094;2024-02-14T14:14:48;13.20;57.50
18287;DHT22;9269;50.838;12.094;2024-02-14T14:17:17;13.20;57.40
18287;DHT22;9269;50.838;12.094;2024-02-14T14:19:48;13.20;58.10
18287;DHT22;9269;50.838;12.094;2024-02-14T14:22:17;13.20;57.60
18287;DHT22;9269;50.838;12.094;2024-02-14T14:24:46;13.30;57.80
18287;DHT22;9269;50.838;12.094;2024-02-14T14:27:17;13.20;57.90
18287;DHT22;9269;50.838;12.094;2024-02-14T14:29:48;13.20;57.90
18287;DHT22;9269;50.838;12.094;2024-02-14T14:32:17;13.40;57.60
18287;DHT22;9269;50.838;12.094;2024-02-14T14:34:49;13.40;57.70
18287;DHT22;9269;50.838;12.094;2024-02-14T14:37:18;13.40;57.50
18287;DHT22;9269;50.838;12.094;2024-02-14T14:39:48;13.30;57.00
18287;DHT22;9269;50.838;12.094;2024-02-14T14:42:19;13.30;57.60
18287;DHT22;9269;50.838;12.094;2024-02-14T14:44:48;13.30;58.00
18287;DHT22;9269;50.838;12.094;2024-02-14T14:47:16;13.40;58.00
18287;DHT22;9269;50.838;12.094;2024-02-14T14:49:46;13.40;58.20
18287;DHT22;9269;50.838;12.094;2024-02-14T14:52:15;13.40;57.90
18287;DHT22;9269;50.838;12.094;2024-02-14T14:54:46;13.30;58.20
18287;DHT22;9269;50.838;12.094;2024-02-14T14:57:15;13.40;58.40
18287;DHT22;9269;50.838;12.094;2024-02-14T14:59:47;13.20;58.40
18287;DHT22;9269;50.838;12.094;2024-02-14T15:02:17;13.20;58.40
18287;DHT22;9269;50.838;12.094;2024-02-14T15:04:46;13.20;58.40
18287;DHT22;9269;50.838;12.094;2024-02-14T15:07:15;13.20;58.10
18287;DHT22;9269;50.838;12.094;2024-02-14T15:09:44;13.10;58.30
18287;DHT22;9269;50.838;12.094;2024-02-14T15:12:13;13.10;58.70
18287;DHT22;9269;50.838;12.094;2024-02-14T15:14:42;13.20;58.30
18287;DHT22;9269;50.838;12.094;2024-02-14T15:17:14;13.20;58.70
18287;DHT22;9269;50.838;12.094;2024-02-14T15:19:43;13.10;58.10
18287;DHT22;9269;50.838;12.094;2024-02-14T15:22:13;13.10;58.80
18287;DHT22;9269;50.838;12.094;2024-02-14T15:24:43;13.10;58.90
18287;DHT22;9269;50.838;12.094;2024-02-14T15:27:12;13.10;58.60
18287;DHT22;9269;50.838;12.094;2024-02-14T15:29:49;13.10;58.70
18287;DHT22;9269;50.838;12.094;2024-02-14T15:32:39;13.10;58.70
18287;DHT22;9269;50.838;12.094;2024-02-14T15:35:26;13.10;59.00
18287;DHT22;9269;50.838;12.094;2024-02-14T15:37:55;13.10;58.70
18287;DHT22;9269;50.838;12.094;2024-02-14T15:40:24;13.00;58.80
18287;DHT22;9269;50.838;12.094;2024-02-14T15:42:53;13.00;59.00
18287;DHT22;9269;50.838;12.094;2024-02-14T15:45:21;13.00;58.70
18287;DHT22;9269;50.838;12.094;2024-02-14T15:47:51;13.00;59.20
18287;DHT22;9269;50.838;12.094;2024-02-14T15:50:20;13.00;59.10
18287;DHT22;9269;50.838;12.094;2024-02-14T15:52:50;13.00;59.10
18287;DHT22;9269;50.838;12.094;2024-02-14T15:55:18;13.00;58.80
18287;DHT22;9269;50.838;12.094;2024-02-14T15:57:46;12.90;59.30
18287;DHT22;9269;50.838;12.094;2024-02-14T16:00:16;13.00;59.40
18287;DHT22;9269;50.838;12.094;2024-02-14T16:02:47;13.00;59.50
18287;DHT22;9269;50.838;12.094;2024-02-14T16:05:17;12.90;59.30
18287;DHT22;9269;50.838;12.094;2024-02-14T16:07:46;12.90;59.40